< < Back
Terminal Aerodrome Forecast


Current Version              Previous Versions:   1  2  3  4  5  6  7  8  9  

Terminal Aerodrome Forecast

501
FTUS42 KGSP 141125
TAFHKY
TAF
KHKY 141125Z 1412/1512 09004KT P6SM BKN250
     FM150000 12004KT P6SM OVC030
     FM150100 12004KT P6SM OVC050 PROB30 1501/1507 4SM -SN OVC025
     FM150700 VRB03KT 5SM -SN OVC025=

Latest METAR

753
SAUS70 KWBC 141200 RRI
MTRHKY
METAR KHKY 141153Z 00000KT 10SM SCT120 M08/M17 A3043 RMK AO2 SLP311
T10781167 11067 21078 53021 $


USA.gov is the U.S. government's official web portal to all federal, state and local government web resources and services.